KSRR

Sierra Blanca Regional Airport

Ruidoso, New Mexico, USA
METAR KSRR 170255Z AUTO 18004KT 10SM OVC021 00/M02 A3040 RMK AO2
Observed Flight Rules
Oct-17 @ 02:55 UTC (14 minutes ago) Marginal Visual Flight Rules
Wind Visibility Clouds
180° at 4 knots 10 miles
  • Overcast at 2,100' AGL
Temperatures Readings
Current 0°C / 32°F
Dewpoint -2°C / 28°F
Humidity 87%
Altimeter 30.4" Hg
Pressure 1029 hPa
Elevation 2076
METAR KSRR 170255Z AUTO 18004KT 10SM OVC021 00/M02 A3040 RMK AO2
Observed Flight Rules
Oct-17 @ 02:55 UTC
(14 minutes ago)
MVFR
Wind Visibility
180° at 4 knots 10 miles
Clouds
  • Overcast at 2,100' AGL
Temperature Dewpoint
0°C / 32°F -2°C / 28°F
Humidity Altimeter Pressure
87% 30.4" Hg 1029 hPa